sensor_id;sensor_type;location;lat;lon;timestamp;pressure;altitude;pressure_sealevel;temperature;humidity
70133;BME280;57495;49.922;7.966;2023-10-19T00:00:56;98096.53;;;10.88;100.00
70133;BME280;57495;49.922;7.966;2023-10-19T00:02:58;98092.66;;;10.90;100.00
70133;BME280;57495;49.922;7.966;2023-10-19T00:04:59;98085.44;;;10.91;100.00
70133;BME280;57495;49.922;7.966;2023-10-19T00:07:00;98087.75;;;10.94;100.00
70133;BME280;57495;49.922;7.966;2023-10-19T00:09:01;98082.97;;;10.89;100.00
70133;BME280;57495;49.922;7.966;2023-10-19T00:11:02;98079.66;;;10.87;100.00
70133;BME280;57495;49.922;7.966;2023-10-19T00:13:09;98079.47;;;10.89;100.00
70133;BME280;57495;49.922;7.966;2023-10-19T00:15:11;98083.78;;;10.90;100.00
70133;BME280;57495;49.922;7.966;2023-10-19T00:17:15;98077.25;;;10.92;100.00
70133;BME280;57495;49.922;7.966;2023-10-19T00:19:16;98073.94;;;10.90;100.00
70133;BME280;57495;49.922;7.966;2023-10-19T00:21:20;98074.56;;;10.92;100.00
70133;BME280;57495;49.922;7.966;2023-10-19T00:23:23;98071.00;;;10.85;100.00
70133;BME280;57495;49.922;7.966;2023-10-19T00:25:32;98074.31;;;10.87;100.00
70133;BME280;57495;49.922;7.966;2023-10-19T00:27:34;98078.00;;;10.86;100.00
70133;BME280;57495;49.922;7.966;2023-10-19T00:29:36;98064.25;;;10.89;100.00
70133;BME280;57495;49.922;7.966;2023-10-19T00:31:40;98063.25;;;10.90;100.00
70133;BME280;57495;49.922;7.966;2023-10-19T00:33:42;98071.88;;;10.92;100.00
70133;BME280;57495;49.922;7.966;2023-10-19T00:35:44;98063.88;;;10.92;100.00
70133;BME280;57495;49.922;7.966;2023-10-19T00:37:50;98064.88;;;10.91;100.00
70133;BME280;57495;49.922;7.966;2023-10-19T00:39:53;98066.97;;;10.96;100.00
70133;BME280;57495;49.922;7.966;2023-10-19T00:41:55;98057.09;;;10.96;100.00
70133;BME280;57495;49.922;7.966;2023-10-19T00:43:59;98058.56;;;10.99;100.00
70133;BME280;57495;49.922;7.966;2023-10-19T00:46:07;98054.69;;;11.01;100.00
70133;BME280;57495;49.922;7.966;2023-10-19T00:48:10;98054.69;;;11.01;100.00
70133;BME280;57495;49.922;7.966;2023-10-19T00:50:12;98054.25;;;10.98;100.00
70133;BME280;57495;49.922;7.966;2023-10-19T00:52:18;98052.56;;;10.97;100.00
70133;BME280;57495;49.922;7.966;2023-10-19T00:54:22;98049.72;;;10.98;100.00
70133;BME280;57495;49.922;7.966;2023-10-19T00:56:31;98047.66;;;11.00;100.00
70133;BME280;57495;49.922;7.966;2023-10-19T00:58:33;98050.97;;;11.02;100.00
70133;BME280;57495;49.922;7.966;2023-10-19T01:00:36;98047.66;;;11.00;100.00
70133;BME280;57495;49.922;7.966;2023-10-19T01:02:43;98046.84;;;11.00;100.00
70133;BME280;57495;49.922;7.966;2023-10-19T01:04:47;98045.81;;;11.01;100.00
70133;BME280;57495;49.922;7.966;2023-10-19T01:06:51;98047.28;;;11.03;100.00
70133;BME280;57495;49.922;7.966;2023-10-19T01:09:06;98036.41;;;11.05;100.00
70133;BME280;57495;49.922;7.966;2023-10-19T01:11:09;98036.19;;;11.07;100.00
70133;BME280;57495;49.922;7.966;2023-10-19T01:13:12;98033.13;;;11.10;100.00
70133;BME280;57495;49.922;7.966;2023-10-19T01:15:17;98037.06;;;11.14;100.00
70133;BME280;57495;49.922;7.966;2023-10-19T01:17:20;98034.19;;;11.15;100.00
70133;BME280;57495;49.922;7.966;2023-10-19T01:19:22;98032.97;;;11.18;100.00
70133;BME280;57495;49.922;7.966;2023-10-19T01:21:24;98027.63;;;11.18;100.00
70133;BME280;57495;49.922;7.966;2023-10-19T01:23:37;98026.59;;;11.19;100.00
70133;BME280;57495;49.922;7.966;2023-10-19T01:25:42;98019.38;;;11.19;100.00
70133;BME280;57495;49.922;7.966;2023-10-19T01:27:50;98016.69;;;11.13;100.00
70133;BME280;57495;49.922;7.966;2023-10-19T01:29:57;98021.00;;;11.14;100.00
70133;BME280;57495;49.922;7.966;2023-10-19T01:32:02;98018.94;;;11.16;100.00
70133;BME280;57495;49.922;7.966;2023-10-19T01:34:06;98012.53;;;11.10;100.00
70133;BME280;57495;49.922;7.966;2023-10-19T01:36:09;98009.28;;;11.15;100.00
70133;BME280;57495;49.922;7.966;2023-10-19T01:38:14;98006.22;;;11.18;100.00
70133;BME280;57495;49.922;7.966;2023-10-19T01:40:18;98002.28;;;11.14;100.00
70133;BME280;57495;49.922;7.966;2023-10-19T01:42:21;98019.81;;;11.16;100.00
70133;BME280;57495;49.922;7.966;2023-10-19T01:44:22;98020.63;;;11.17;100.00
70133;BME280;57495;49.922;7.966;2023-10-19T01:46:24;98008.66;;;11.13;100.00
70133;BME280;57495;49.922;7.966;2023-10-19T01:48:29;98023.91;;;11.19;100.00
70133;BME280;57495;49.922;7.966;2023-10-19T01:50:33;98014.88;;;11.20;100.00
70133;BME280;57495;49.922;7.966;2023-10-19T01:52:39;98020.25;;;11.20;100.00
70133;BME280;57495;49.922;7.966;2023-10-19T01:54:40;98013.66;;;11.22;100.00
70133;BME280;57495;49.922;7.966;2023-10-19T01:56:43;98010.78;;;11.24;100.00
70133;BME280;57495;49.922;7.966;2023-10-19T01:58:46;98014.91;;;11.27;100.00
70133;BME280;57495;49.922;7.966;2023-10-19T02:00:46;98001.34;;;11.28;100.00
70133;BME280;57495;49.922;7.966;2023-10-19T02:02:48;98000.53;;;11.28;100.00
70133;BME280;57495;49.922;7.966;2023-10-19T02:04:48;97995.97;;;11.28;100.00
70133;BME280;57495;49.922;7.966;2023-10-19T02:06:53;98002.38;;;11.27;100.00
70133;BME280;57495;49.922;7.966;2023-10-19T02:08:55;97999.28;;;11.24;100.00
70133;BME280;57495;49.922;7.966;2023-10-19T02:11:00;97996.19;;;11.27;100.00
70133;BME280;57495;49.922;7.966;2023-10-19T02:13:04;97990.63;;;11.28;100.00
70133;BME280;57495;49.922;7.966;2023-10-19T02:15:07;97983.66;;;11.27;100.00
70133;BME280;57495;49.922;7.966;2023-10-19T02:17:08;97990.25;;;11.31;100.00
70133;BME280;57495;49.922;7.966;2023-10-19T02:19:10;97992.06;;;11.31;100.00
70133;BME280;57495;49.922;7.966;2023-10-19T02:21:10;97994.75;;;11.31;100.00
70133;BME280;57495;49.922;7.966;2023-10-19T02:23:13;97981.19;;;11.32;100.00
70133;BME280;57495;49.922;7.966;2023-10-19T02:25:14;97977.69;;;11.32;100.00
70133;BME280;57495;49.922;7.966;2023-10-19T02:27:17;97971.09;;;11.34;100.00
70133;BME280;57495;49.922;7.966;2023-10-19T02:29:19;97975.63;;;11.34;100.00
70133;BME280;57495;49.922;7.966;2023-10-19T02:31:22;97972.13;;;11.33;100.00
70133;BME280;57495;49.922;7.966;2023-10-19T02:33:23;97976.69;;;11.33;100.00
70133;BME280;57495;49.922;7.966;2023-10-19T02:35:27;97969.47;;;11.33;100.00
70133;BME280;57495;49.922;7.966;2023-10-19T02:37:28;97973.78;;;11.34;100.00
70133;BME280;57495;49.922;7.966;2023-10-19T02:39:30;97971.31;;;11.33;100.00
70133;BME280;57495;49.922;7.966;2023-10-19T02:41:31;97972.34;;;11.32;100.00
70133;BME280;57495;49.922;7.966;2023-10-19T02:43:36;97971.31;;;11.33;100.00
70133;BME280;57495;49.922;7.966;2023-10-19T02:45:38;97959.78;;;11.32;100.00
70133;BME280;57495;49.922;7.966;2023-10-19T02:47:39;97969.66;;;11.32;100.00
70133;BME280;57495;49.922;7.966;2023-10-19T02:49:43;97963.91;;;11.35;100.00
70133;BME280;57495;49.922;7.966;2023-10-19T02:51:52;97968.22;;;11.29;100.00
70133;BME280;57495;49.922;7.966;2023-10-19T02:53:52;97967.59;;;11.34;100.00
70133;BME280;57495;49.922;7.966;2023-10-19T02:55:54;97970.09;;;11.35;100.00
70133;BME280;57495;49.922;7.966;2023-10-19T02:57:56;97968.03;;;11.37;100.00
70133;BME280;57495;49.922;7.966;2023-10-19T02:59:59;97964.34;;;11.38;100.00
70133;BME280;57495;49.922;7.966;2023-10-19T03:02:01;97968.03;;;11.37;100.00
70133;BME280;57495;49.922;7.966;2023-10-19T03:04:07;97962.69;;;11.37;100.00
70133;BME280;57495;49.922;7.966;2023-10-19T03:06:08;97966.78;;;11.33;100.00
70133;BME280;57495;49.922;7.966;2023-10-19T03:08:10;97961.44;;;11.33;100.00
70133;BME280;57495;49.922;7.966;2023-10-19T03:10:11;97961.06;;;11.36;100.00
70133;BME280;57495;49.922;7.966;2023-10-19T03:12:23;97958.13;;;11.31;100.00
70133;BME280;57495;49.922;7.966;2023-10-19T03:14:26;97961.44;;;11.33;100.00
70133;BME280;57495;49.922;7.966;2023-10-19T03:16:28;97962.88;;;11.36;100.00
70133;BME280;57495;49.922;7.966;2023-10-19T03:18:32;97962.44;;;11.32;100.00
70133;BME280;57495;49.922;7.966;2023-10-19T03:20:33;97966.41;;;11.36;100.00
70133;BME280;57495;49.922;7.966;2023-10-19T03:22:33;97961.06;;;11.36;100.00
70133;BME280;57495;49.922;7.966;2023-10-19T03:24:35;97956.50;;;11.37;100.00
70133;BME280;57495;49.922;7.966;2023-10-19T03:26:36;97949.09;;;11.39;100.00
70133;BME280;57495;49.922;7.966;2023-10-19T03:28:39;97940.25;;;11.38;100.00
70133;BME280;57495;49.922;7.966;2023-10-19T03:30:41;97944.38;;;11.41;100.00
70133;BME280;57495;49.922;7.966;2023-10-19T03:32:42;97935.53;;;11.40;100.00
70133;BME280;57495;49.922;7.966;2023-10-19T03:34:45;97934.50;;;11.41;100.00
70133;BME280;57495;49.922;7.966;2023-10-19T03:36:50;97921.09;;;11.41;100.00
70133;BME280;57495;49.922;7.966;2023-10-19T03:38:51;97918.63;;;11.40;100.00
70133;BME280;57495;49.922;7.966;2023-10-19T03:40:53;97910.22;;;11.43;100.00
70133;BME280;57495;49.922;7.966;2023-10-19T03:43:00;97904.63;;;11.38;100.00
70133;BME280;57495;49.922;7.966;2023-10-19T03:45:06;97906.91;;;11.41;100.00
70133;BME280;57495;49.922;7.966;2023-10-19T03:47:13;97906.25;;;11.32;100.00
70133;BME280;57495;49.922;7.966;2023-10-19T03:49:19;97900.50;;;11.35;100.00
70133;BME280;57495;49.922;7.966;2023-10-19T03:51:22;97902.13;;;11.30;100.00
70133;BME280;57495;49.922;7.966;2023-10-19T03:53:25;97904.63;;;11.31;100.00
70133;BME280;57495;49.922;7.966;2023-10-19T03:55:26;97906.25;;;11.32;100.00
70133;BME280;57495;49.922;7.966;2023-10-19T03:57:29;97892.88;;;11.32;100.00
70133;BME280;57495;49.922;7.966;2023-10-19T03:59:30;97896.75;;;11.23;100.00
70133;BME280;57495;49.922;7.966;2023-10-19T04:01:33;97894.69;;;11.25;100.00
70133;BME280;57495;49.922;7.966;2023-10-19T04:03:34;97895.50;;;11.19;100.00
70133;BME280;57495;49.922;7.966;2023-10-19T04:05:36;97897.59;;;11.24;100.00
70133;BME280;57495;49.922;7.966;2023-10-19T04:07:40;97894.50;;;11.27;100.00
70133;BME280;57495;49.922;7.966;2023-10-19T04:09:44;97892.44;;;11.22;100.00
70133;BME280;57495;49.922;7.966;2023-10-19T04:12:00;97894.69;;;11.25;100.00
70133;BME280;57495;49.922;7.966;2023-10-19T04:14:02;97883.81;;;11.27;100.00
70133;BME280;57495;49.922;7.966;2023-10-19T04:16:04;97876.63;;;11.27;100.00
70133;BME280;57495;49.922;7.966;2023-10-19T04:18:09;97874.56;;;11.29;100.00
70133;BME280;57495;49.922;7.966;2023-10-19T04:20:11;97881.75;;;11.29;100.00
70133;BME280;57495;49.922;7.966;2023-10-19T04:22:28;97890.41;;;11.31;100.00
70133;BME280;57495;49.922;7.966;2023-10-19T04:24:33;97891.88;;;11.33;100.00
70133;BME280;57495;49.922;7.966;2023-10-19T04:26:35;97884.84;;;11.32;100.00
70133;BME280;57495;49.922;7.966;2023-10-19T04:28:39;97886.50;;;11.33;100.00
70133;BME280;57495;49.922;7.966;2023-10-19T04:30:44;97887.94;;;11.36;100.00
70133;BME280;57495;49.922;7.966;2023-10-19T04:32:46;97889.41;;;11.38;100.00
70133;BME280;57495;49.922;7.966;2023-10-19T04:34:47;97885.91;;;11.38;100.00
70133;BME280;57495;49.922;7.966;2023-10-19T04:36:49;97875.81;;;11.33;100.00
70133;BME280;57495;49.922;7.966;2023-10-19T04:38:50;97874.50;;;11.16;100.00
70133;BME280;57495;49.922;7.966;2023-10-19T04:40:53;97881.13;;;11.20;100.00
70133;BME280;57495;49.922;7.966;2023-10-19T04:42:55;97873.72;;;11.22;100.00
70133;BME280;57495;49.922;7.966;2023-10-19T04:44:55;97864.66;;;11.23;100.00
70133;BME280;57495;49.922;7.966;2023-10-19T04:46:57;97866.94;;;11.26;100.00
70133;BME280;57495;49.922;7.966;2023-10-19T04:48:58;97869.22;;;11.29;100.00
70133;BME280;57495;49.922;7.966;2023-10-19T04:51:03;97872.31;;;11.33;100.00
70133;BME280;57495;49.922;7.966;2023-10-19T04:53:05;97880.53;;;11.31;100.00
70133;BME280;57495;49.922;7.966;2023-10-19T04:55:07;97882.78;;;11.34;100.00
70133;BME280;57495;49.922;7.966;2023-10-19T04:57:10;97879.09;;;11.35;100.00
70133;BME280;57495;49.922;7.966;2023-10-19T04:59:12;97884.06;;;11.38;100.00
70133;BME280;57495;49.922;7.966;2023-10-19T05:01:13;97885.28;;;11.36;100.00
70133;BME280;57495;49.922;7.966;2023-10-19T05:03:15;97879.72;;;11.37;100.00
70133;BME280;57495;49.922;7.966;2023-10-19T05:05:19;97876.03;;;11.38;100.00
70133;BME280;57495;49.922;7.966;2023-10-19T05:07:20;97879.72;;;11.37;100.00
70133;BME280;57495;49.922;7.966;2023-10-19T05:09:22;97877.25;;;11.36;100.00
70133;BME280;57495;49.922;7.966;2023-10-19T05:11:23;97868.78;;;11.32;100.00
70133;BME280;57495;49.922;7.966;2023-10-19T05:13:26;97882.78;;;11.34;100.00
70133;BME280;57495;49.922;7.966;2023-10-19T05:15:28;97888.97;;;11.28;100.00
70133;BME280;57495;49.922;7.966;2023-10-19T05:17:29;97871.28;;;11.27;100.00
70133;BME280;57495;49.922;7.966;2023-10-19T05:19:31;97865.91;;;11.27;100.00
70133;BME280;57495;49.922;7.966;2023-10-19T05:21:32;97876.63;;;11.27;100.00
70133;BME280;57495;49.922;7.966;2023-10-19T05:23:34;97884.84;;;11.32;100.00
70133;BME280;57495;49.922;7.966;2023-10-19T05:25:35;97869.22;;;11.29;100.00
70133;BME280;57495;49.922;7.966;2023-10-19T05:27:38;97871.88;;;11.29;100.00
70133;BME280;57495;49.922;7.966;2023-10-19T05:29:40;97874.16;;;11.32;100.00
70133;BME280;57495;49.922;7.966;2023-10-19T05:31:41;97867.59;;;11.35;100.00
70133;BME280;57495;49.922;7.966;2023-10-19T05:33:43;97875.19;;;11.31;100.00
70133;BME280;57495;49.922;7.966;2023-10-19T05:35:44;97879.91;;;11.36;100.00
70133;BME280;57495;49.922;7.966;2023-10-19T05:37:45;97875.38;;;11.30;100.00
70133;BME280;57495;49.922;7.966;2023-10-19T05:39:46;97883.19;;;11.18;100.00
70133;BME280;57495;49.922;7.966;2023-10-19T05:41:47;97875.97;;;11.25;100.00
70133;BME280;57495;49.922;7.966;2023-10-19T05:43:49;97874.13;;;11.26;100.00
70133;BME280;57495;49.922;7.966;2023-10-19T05:45:52;97874.56;;;11.29;100.00
70133;BME280;57495;49.922;7.966;2023-10-19T05:47:55;97881.97;;;11.34;100.00
70133;BME280;57495;49.922;7.966;2023-10-19T05:49:56;97879.09;;;11.35;100.00
70133;BME280;57495;49.922;7.966;2023-10-19T05:51:57;97873.13;;;11.33;100.00
70133;BME280;57495;49.922;7.966;2023-10-19T05:53:59;97870.06;;;11.36;100.00
70133;BME280;57495;49.922;7.966;2023-10-19T05:56:03;97873.75;;;11.35;100.00
70133;BME280;57495;49.922;7.966;2023-10-19T05:58:06;97860.59;;;11.40;100.00
70133;BME280;57495;49.922;7.966;2023-10-19T06:00:10;97861.41;;;11.41;100.00
70133;BME280;57495;49.922;7.966;2023-10-19T06:02:17;97868.63;;;11.40;100.00
70133;BME280;57495;49.922;7.966;2023-10-19T06:04:18;97875.81;;;11.40;100.00
70133;BME280;57495;49.922;7.966;2023-10-19T06:06:20;97868.44;;;11.42;100.00
70133;BME280;57495;49.922;7.966;2023-10-19T06:08:22;97872.50;;;11.31;100.00
70133;BME280;57495;49.922;7.966;2023-10-19T06:10:23;97870.84;;;11.24;100.00
70133;BME280;57495;49.922;7.966;2023-10-19T06:12:25;97872.47;;;11.25;100.00
70133;BME280;57495;49.922;7.966;2023-10-19T06:14:26;97863.88;;;11.29;100.00
70133;BME280;57495;49.922;7.966;2023-10-19T06:16:30;97873.38;;;11.38;100.00
70133;BME280;57495;49.922;7.966;2023-10-19T06:18:33;97878.72;;;11.38;100.00
70133;BME280;57495;49.922;7.966;2023-10-19T06:20:34;97886.75;;;11.38;100.00
70133;BME280;57495;49.922;7.966;2023-10-19T06:22:36;97883.44;;;11.43;100.00
70133;BME280;57495;49.922;7.966;2023-10-19T06:24:36;97890.47;;;11.44;100.00
70133;BME280;57495;49.922;7.966;2023-10-19T06:26:38;97882.84;;;11.48;100.00
70133;BME280;57495;49.922;7.966;2023-10-19T06:28:39;97884.50;;;11.49;100.00
70133;BME280;57495;49.922;7.966;2023-10-19T06:30:41;97881.41;;;11.52;100.00
70133;BME280;57495;49.922;7.966;2023-10-19T06:32:47;97875.84;;;11.47;100.00
70133;BME280;57495;49.922;7.966;2023-10-19T06:34:50;97878.75;;;11.52;100.00
70133;BME280;57495;49.922;7.966;2023-10-19T06:36:51;97887.19;;;11.55;100.00
70133;BME280;57495;49.922;7.966;2023-10-19T06:38:54;97890.69;;;11.56;100.00
70133;BME280;57495;49.922;7.966;2023-10-19T06:40:55;97884.91;;;11.52;100.00
70133;BME280;57495;49.922;7.966;2023-10-19T06:42:58;97885.34;;;11.56;100.00
70133;BME280;57495;49.922;7.966;2023-10-19T06:45:00;97880.59;;;11.58;100.00
70133;BME280;57495;49.922;7.966;2023-10-19T06:47:02;97883.28;;;11.58;100.00
70133;BME280;57495;49.922;7.966;2023-10-19T06:49:03;97884.94;;;11.59;100.00
70133;BME280;57495;49.922;7.966;2023-10-19T06:51:06;97881.84;;;11.62;100.00
70133;BME280;57495;49.922;7.966;2023-10-19T06:53:07;97884.50;;;11.62;100.00
70133;BME280;57495;49.922;7.966;2023-10-19T06:55:11;97889.88;;;11.62;100.00
70133;BME280;57495;49.922;7.966;2023-10-19T06:57:14;97879.16;;;11.62;100.00
70133;BME280;57495;49.922;7.966;2023-10-19T06:59:16;97892.75;;;11.54;100.00
70133;BME280;57495;49.922;7.966;2023-10-19T07:01:17;97887.63;;;11.59;100.00
70133;BME280;57495;49.922;7.966;2023-10-19T07:03:23;97887.00;;;11.57;100.00
70133;BME280;57495;49.922;7.966;2023-10-19T07:05:24;97882.69;;;11.63;100.00
70133;BME280;57495;49.922;7.966;2023-10-19T07:07:27;97883.69;;;11.61;100.00
70133;BME280;57495;49.922;7.966;2023-10-19T07:09:28;97875.06;;;11.59;100.00
70133;BME280;57495;49.922;7.966;2023-10-19T07:11:29;97873.81;;;11.62;100.00
70133;BME280;57495;49.922;7.966;2023-10-19T07:13:31;97870.50;;;11.60;100.00
70133;BME280;57495;49.922;7.966;2023-10-19T07:15:33;97874.47;;;11.64;100.00
70133;BME280;57495;49.922;7.966;2023-10-19T07:17:35;97879.19;;;11.69;100.00
70133;BME280;57495;49.922;7.966;2023-10-19T07:19:42;97877.13;;;11.71;100.00
70133;BME280;57495;49.922;7.966;2023-10-19T07:21:43;97882.91;;;11.74;100.00
70133;BME280;57495;49.922;7.966;2023-10-19T07:23:50;97883.09;;;11.73;100.00
70133;BME280;57495;49.922;7.966;2023-10-19T07:25:53;97880.03;;;11.76;100.00
70133;BME280;57495;49.922;7.966;2023-10-19T07:27:56;97898.56;;;11.77;100.00
70133;BME280;57495;49.922;7.966;2023-10-19T07:30:00;97888.88;;;11.76;100.00
70133;BME280;57495;49.922;7.966;2023-10-19T07:32:05;97894.66;;;11.80;100.00
70133;BME280;57495;49.922;7.966;2023-10-19T07:34:07;97897.75;;;11.84;100.00
70133;BME280;57495;49.922;7.966;2023-10-19T07:36:12;97892.41;;;11.84;100.00
70133;BME280;57495;49.922;7.966;2023-10-19T07:38:14;97895.69;;;11.86;100.00
70133;BME280;57495;49.922;7.966;2023-10-19T07:40:16;97892.81;;;11.87;100.00
70133;BME280;57495;49.922;7.966;2023-10-19T07:42:18;97895.28;;;11.89;100.00
70133;BME280;57495;49.922;7.966;2023-10-19T07:44:21;97886.63;;;11.87;100.00
70133;BME280;57495;49.922;7.966;2023-10-19T07:46:23;97875.31;;;11.85;100.00
70133;BME280;57495;49.922;7.966;2023-10-19T07:48:23;97885.03;;;11.92;100.00
70133;BME280;57495;49.922;7.966;2023-10-19T07:50:25;97877.81;;;12.06;100.00
70133;BME280;57495;49.922;7.966;2023-10-19T07:52:26;97881.94;;;12.02;100.00
70133;BME280;57495;49.922;7.966;2023-10-19T07:54:28;97888.31;;;12.08;100.00
70133;BME280;57495;49.922;7.966;2023-10-19T07:56:32;97887.06;;;12.10;100.00
70133;BME280;57495;49.922;7.966;2023-10-19T07:58:34;97886.69;;;12.13;100.00
70133;BME280;57495;49.922;7.966;2023-10-19T08:00:35;97887.06;;;12.10;100.00
70133;BME280;57495;49.922;7.966;2023-10-19T08:02:37;97881.34;;;12.07;100.00
70133;BME280;57495;49.922;7.966;2023-10-19T08:04:40;97886.91;;;12.05;100.00
70133;BME280;57495;49.922;7.966;2023-10-19T08:06:42;97882.97;;;11.94;100.00
70133;BME280;57495;49.922;7.966;2023-10-19T08:08:44;97887.50;;;11.94;100.00
70133;BME280;57495;49.922;7.966;2023-10-19T08:10:46;97894.09;;;12.05;100.00
70133;BME280;57495;49.922;7.966;2023-10-19T08:12:49;97885.03;;;12.12;100.00
70133;BME280;57495;49.922;7.966;2023-10-19T08:14:50;97884.22;;;12.25;100.00
70133;BME280;57495;49.922;7.966;2023-10-19T08:16:51;97888.13;;;12.29;100.00
70133;BME280;57495;49.922;7.966;2023-10-19T08:18:53;97890.59;;;12.31;100.00
70133;BME280;57495;49.922;7.966;2023-10-19T08:20:54;97888.34;;;12.34;100.00
70133;BME280;57495;49.922;7.966;2023-10-19T08:22:56;97878.41;;;12.42;100.00
70133;BME280;57495;49.922;7.966;2023-10-19T08:24:59;97882.13;;;12.47;100.00
70133;BME280;57495;49.922;7.966;2023-10-19T08:27:01;97864.38;;;12.53;100.00
70133;BME280;57495;49.922;7.966;2023-10-19T08:29:07;97861.47;;;12.61;100.00
70133;BME280;57495;49.922;7.966;2023-10-19T08:31:13;97868.06;;;12.65;100.00
70133;BME280;57495;49.922;7.966;2023-10-19T08:33:14;97858.56;;;12.76;100.00
70133;BME280;57495;49.922;7.966;2023-10-19T08:35:18;97860.38;;;12.89;100.00
70133;BME280;57495;49.922;7.966;2023-10-19T08:37:21;97846.16;;;12.88;100.00
70133;BME280;57495;49.922;7.966;2023-10-19T08:39:21;97853.59;;;12.80;100.00
70133;BME280;57495;49.922;7.966;2023-10-19T08:41:24;97856.47;;;12.85;100.00
70133;BME280;57495;49.922;7.966;2023-10-19T08:43:26;97857.28;;;12.85;100.00
70133;BME280;57495;49.922;7.966;2023-10-19T08:45:30;97865.53;;;12.84;100.00
70133;BME280;57495;49.922;7.966;2023-10-19T08:47:35;97867.00;;;12.86;100.00
70133;BME280;57495;49.922;7.966;2023-10-19T08:49:37;97868.22;;;12.84;100.00
70133;BME280;57495;49.922;7.966;2023-10-19T08:51:39;97865.75;;;12.82;100.00
70133;BME280;57495;49.922;7.966;2023-10-19T08:53:40;97855.22;;;12.87;100.00
70133;BME280;57495;49.922;7.966;2023-10-19T08:55:41;97856.44;;;12.91;100.00
70133;BME280;57495;49.922;7.966;2023-10-19T08:57:44;97851.88;;;12.99;100.00
70133;BME280;57495;49.922;7.966;2023-10-19T08:59:46;97850.41;;;13.09;100.00
70133;BME280;57495;49.922;7.966;2023-10-19T09:01:49;97851.75;;;13.32;100.00
70133;BME280;57495;49.922;7.966;2023-10-19T09:03:51;97851.16;;;13.23;100.00
70133;BME280;57495;49.922;7.966;2023-10-19T09:05:52;97844.75;;;13.24;100.00
70133;BME280;57495;49.922;7.966;2023-10-19T09:07:54;97844.16;;;13.15;100.00
70133;BME280;57495;49.922;7.966;2023-10-19T09:09:56;97841.47;;;13.15;100.00
70133;BME280;57495;49.922;7.966;2023-10-19T09:11:58;97833.66;;;13.14;100.00
70133;BME280;57495;49.922;7.966;2023-10-19T09:13:59;97829.25;;;13.26;100.00
70133;BME280;57495;49.922;7.966;2023-10-19T09:16:05;97830.44;;;13.44;100.00
70133;BME280;57495;49.922;7.966;2023-10-19T09:18:14;97831.84;;;13.53;100.00
70133;BME280;57495;49.922;7.966;2023-10-19T09:20:16;97821.63;;;13.62;100.00
70133;BME280;57495;49.922;7.966;2023-10-19T09:22:34;97825.84;;;13.83;100.00
70133;BME280;57495;49.922;7.966;2023-10-19T09:24:37;97814.50;;;13.81;100.00
70133;BME280;57495;49.922;7.966;2023-10-19T09:26:39;97815.53;;;13.80;100.00
70133;BME280;57495;49.922;7.966;2023-10-19T09:28:40;97817.25;;;13.67;100.00
70133;BME280;57495;49.922;7.966;2023-10-19T09:30:43;97816.41;;;13.73;100.00
70133;BME280;57495;49.922;7.966;2023-10-19T09:32:46;97808.13;;;13.75;100.00
70133;BME280;57495;49.922;7.966;2023-10-19T09:34:49;97812.22;;;13.78;100.00
70133;BME280;57495;49.922;7.966;2023-10-19T09:36:52;97811.97;;;13.54;100.00
70133;BME280;57495;49.922;7.966;2023-10-19T09:38:54;97816.16;;;13.43;100.00
70133;BME280;57495;49.922;7.966;2023-10-19T09:40:58;97822.38;;;13.44;100.00
70133;BME280;57495;49.922;7.966;2023-10-19T09:43:04;97821.16;;;13.40;100.00
70133;BME280;57495;49.922;7.966;2023-10-19T09:45:08;97819.69;;;13.44;100.00
70133;BME280;57495;49.922;7.966;2023-10-19T09:47:11;97824.63;;;13.47;100.00
70133;BME280;57495;49.922;7.966;2023-10-19T09:49:14;97829.47;;;13.31;100.00
70133;BME280;57495;49.922;7.966;2023-10-19T09:51:18;97828.66;;;13.18;100.00
70133;BME280;57495;49.922;7.966;2023-10-19T09:53:22;97835.22;;;13.28;100.00
70133;BME280;57495;49.922;7.966;2023-10-19T09:55:30;97825.13;;;13.30;100.00
70133;BME280;57495;49.922;7.966;2023-10-19T09:57:36;97829.88;;;13.35;100.00
70133;BME280;57495;49.922;7.966;2023-10-19T09:59:40;97819.94;;;13.36;100.00
70133;BME280;57495;49.922;7.966;2023-10-19T10:02:14;97826.97;;;13.37;100.00
70133;BME280;57495;49.922;7.966;2023-10-19T10:04:30;97838.91;;;13.41;100.00
70133;BME280;57495;49.922;7.966;2023-10-19T10:06:58;97834.75;;;13.45;100.00
70133;BME280;57495;49.922;7.966;2023-10-19T10:09:00;97830.59;;;13.49;100.00
70133;BME280;57495;49.922;7.966;2023-10-19T10:11:20;97830.19;;;13.52;100.00
70133;BME280;57495;49.922;7.966;2023-10-19T10:13:37;97823.59;;;13.48;100.00
70133;BME280;57495;49.922;7.966;2023-10-19T10:15:40;97832.25;;;13.50;100.00
70133;BME280;57495;49.922;7.966;2023-10-19T10:17:42;97834.91;;;13.57;100.00
70133;BME280;57495;49.922;7.966;2023-10-19T10:19:43;97828.88;;;13.61;100.00
70133;BME280;57495;49.922;7.966;2023-10-19T10:22:07;97821.00;;;13.66;100.00
70133;BME280;57495;49.922;7.966;2023-10-19T10:24:12;97824.56;;;13.85;100.00
70133;BME280;57495;49.922;7.966;2023-10-19T10:26:15;97824.56;;;13.85;100.00
70133;BME280;57495;49.922;7.966;2023-10-19T10:28:18;97810.63;;;13.95;100.00
70133;BME280;57495;49.922;7.966;2023-10-19T10:30:19;97813.06;;;14.03;100.00
70133;BME280;57495;49.922;7.966;2023-10-19T10:32:44;97801.28;;;14.23;100.00
70133;BME280;57495;49.922;7.966;2023-10-19T10:34:48;97787.75;;;14.36;100.00
70133;BME280;57495;49.922;7.966;2023-10-19T10:37:00;97792.75;;;14.51;100.00
70133;BME280;57495;49.922;7.966;2023-10-19T10:39:04;97791.44;;;14.60;100.00
70133;BME280;57495;49.922;7.966;2023-10-19T10:41:07;97793.44;;;14.83;100.00
70133;BME280;57495;49.922;7.966;2023-10-19T10:43:12;97796.72;;;14.85;100.00
70133;BME280;57495;49.922;7.966;2023-10-19T10:45:18;97806.84;;;14.72;100.00